sensor_id;sensor_type;location;lat;lon;timestamp;temperature;humidity
68912;SHT31;55953;51.650;-0.522;2023-12-20T00:01:22;4.44;88.28
68912;SHT31;55953;51.650;-0.522;2023-12-20T00:03:50;4.40;88.34
68912;SHT31;55953;51.650;-0.522;2023-12-20T00:06:18;4.39;88.36
68912;SHT31;55953;51.650;-0.522;2023-12-20T00:08:46;4.35;88.38
68912;SHT31;55953;51.650;-0.522;2023-12-20T00:11:15;4.31;88.40
68912;SHT31;55953;51.650;-0.522;2023-12-20T00:13:43;4.28;88.44
68912;SHT31;55953;51.650;-0.522;2023-12-20T00:16:13;4.25;88.48
68912;SHT31;55953;51.650;-0.522;2023-12-20T00:18:41;4.27;88.58
68912;SHT31;55953;51.650;-0.522;2023-12-20T00:21:09;4.28;88.63
68912;SHT31;55953;51.650;-0.522;2023-12-20T00:23:37;4.31;88.71
68912;SHT31;55953;51.650;-0.522;2023-12-20T00:26:04;4.31;88.66
68912;SHT31;55953;51.650;-0.522;2023-12-20T00:28:32;4.32;88.62
68912;SHT31;55953;51.650;-0.522;2023-12-20T00:31:01;4.37;88.75
68912;SHT31;55953;51.650;-0.522;2023-12-20T00:33:29;4.40;88.65
68912;SHT31;55953;51.650;-0.522;2023-12-20T00:35:57;4.47;88.67
68912;SHT31;55953;51.650;-0.522;2023-12-20T00:38:25;4.52;88.61
68912;SHT31;55953;51.650;-0.522;2023-12-20T00:40:53;4.56;88.49
68912;SHT31;55953;51.650;-0.522;2023-12-20T00:43:21;4.57;88.51
68912;SHT31;55953;51.650;-0.522;2023-12-20T00:45:49;4.57;88.50
68912;SHT31;55953;51.650;-0.522;2023-12-20T00:48:17;4.57;88.55
68912;SHT31;55953;51.650;-0.522;2023-12-20T00:50:45;4.56;88.50
68912;SHT31;55953;51.650;-0.522;2023-12-20T00:53:13;4.53;88.50
68912;SHT31;55953;51.650;-0.522;2023-12-20T00:55:41;4.48;88.48
68912;SHT31;55953;51.650;-0.522;2023-12-20T00:58:11;4.42;88.50
68912;SHT31;55953;51.650;-0.522;2023-12-20T01:00:39;4.36;88.44
68912;SHT31;55953;51.650;-0.522;2023-12-20T01:03:11;4.26;88.40
68912;SHT31;55953;51.650;-0.522;2023-12-20T01:05:39;4.18;88.52
68912;SHT31;55953;51.650;-0.522;2023-12-20T01:08:07;4.13;88.61
68912;SHT31;55953;51.650;-0.522;2023-12-20T01:10:35;4.10;88.73
68912;SHT31;55953;51.650;-0.522;2023-12-20T01:13:03;4.07;88.80
68912;SHT31;55953;51.650;-0.522;2023-12-20T01:15:31;4.05;88.84
68912;SHT31;55953;51.650;-0.522;2023-12-20T01:17:59;4.06;88.92
68912;SHT31;55953;51.650;-0.522;2023-12-20T01:20:27;4.05;88.91
68912;SHT31;55953;51.650;-0.522;2023-12-20T01:22:55;4.03;88.92
68912;SHT31;55953;51.650;-0.522;2023-12-20T01:25:23;4.04;88.94
68912;SHT31;55953;51.650;-0.522;2023-12-20T01:27:51;4.02;88.98
68912;SHT31;55953;51.650;-0.522;2023-12-20T01:30:19;4.01;88.97
68912;SHT31;55953;51.650;-0.522;2023-12-20T01:32:47;3.98;88.99
68912;SHT31;55953;51.650;-0.522;2023-12-20T01:35:15;3.96;89.07
68912;SHT31;55953;51.650;-0.522;2023-12-20T01:37:43;3.95;89.16
68912;SHT31;55953;51.650;-0.522;2023-12-20T01:40:12;3.98;89.25
68912;SHT31;55953;51.650;-0.522;2023-12-20T01:42:40;3.97;89.23
68912;SHT31;55953;51.650;-0.522;2023-12-20T01:45:08;3.98;89.32
68912;SHT31;55953;51.650;-0.522;2023-12-20T01:47:36;3.98;89.23
68912;SHT31;55953;51.650;-0.522;2023-12-20T01:50:05;3.95;89.20
68912;SHT31;55953;51.650;-0.522;2023-12-20T01:52:36;3.91;89.17
68912;SHT31;55953;51.650;-0.522;2023-12-20T01:55:04;3.88;89.21
68912;SHT31;55953;51.650;-0.522;2023-12-20T01:57:41;3.88;89.30
68912;SHT31;55953;51.650;-0.522;2023-12-20T02:00:11;3.89;89.29
68912;SHT31;55953;51.650;-0.522;2023-12-20T02:02:40;3.88;89.29
68912;SHT31;55953;51.650;-0.522;2023-12-20T02:05:09;3.90;89.35
68912;SHT31;55953;51.650;-0.522;2023-12-20T02:07:37;3.91;89.46
68912;SHT31;55953;51.650;-0.522;2023-12-20T02:10:05;3.93;89.40
68912;SHT31;55953;51.650;-0.522;2023-12-20T02:12:34;3.95;89.38
68912;SHT31;55953;51.650;-0.522;2023-12-20T02:15:02;3.95;89.38
68912;SHT31;55953;51.650;-0.522;2023-12-20T02:17:32;3.94;89.32
68912;SHT31;55953;51.650;-0.522;2023-12-20T02:20:00;3.96;89.41
68912;SHT31;55953;51.650;-0.522;2023-12-20T02:22:28;3.96;89.33
68912;SHT31;55953;51.650;-0.522;2023-12-20T02:24:56;3.94;89.29
68912;SHT31;55953;51.650;-0.522;2023-12-20T02:27:24;3.95;89.29
68912;SHT31;55953;51.650;-0.522;2023-12-20T02:29:53;3.95;89.35
68912;SHT31;55953;51.650;-0.522;2023-12-20T02:32:21;3.97;89.35
68912;SHT31;55953;51.650;-0.522;2023-12-20T02:34:55;3.96;89.32
68912;SHT31;55953;51.650;-0.522;2023-12-20T02:37:24;3.98;89.42
68912;SHT31;55953;51.650;-0.522;2023-12-20T02:39:52;3.97;89.39
68912;SHT31;55953;51.650;-0.522;2023-12-20T02:42:20;3.98;89.42
68912;SHT31;55953;51.650;-0.522;2023-12-20T02:44:48;4.03;89.47
68912;SHT31;55953;51.650;-0.522;2023-12-20T02:47:15;4.07;89.43
68912;SHT31;55953;51.650;-0.522;2023-12-20T02:49:44;4.11;89.43
68912;SHT31;55953;51.650;-0.522;2023-12-20T02:52:12;4.20;89.48
68912;SHT31;55953;51.650;-0.522;2023-12-20T02:54:40;4.30;89.39
68912;SHT31;55953;51.650;-0.522;2023-12-20T02:57:08;4.40;89.23
68912;SHT31;55953;51.650;-0.522;2023-12-20T02:59:35;4.47;89.09
68912;SHT31;55953;51.650;-0.522;2023-12-20T03:02:03;4.54;89.03
68912;SHT31;55953;51.650;-0.522;2023-12-20T03:04:32;4.62;88.98
68912;SHT31;55953;51.650;-0.522;2023-12-20T03:07:00;4.70;88.82
68912;SHT31;55953;51.650;-0.522;2023-12-20T03:09:28;4.76;88.67
68912;SHT31;55953;51.650;-0.522;2023-12-20T03:12:05;4.79;88.61
68912;SHT31;55953;51.650;-0.522;2023-12-20T03:14:33;4.82;88.53
68912;SHT31;55953;51.650;-0.522;2023-12-20T03:17:01;4.85;88.45
68912;SHT31;55953;51.650;-0.522;2023-12-20T03:19:29;4.86;88.40
68912;SHT31;55953;51.650;-0.522;2023-12-20T03:21:57;4.88;88.35
68912;SHT31;55953;51.650;-0.522;2023-12-20T03:24:28;4.88;88.40
68912;SHT31;55953;51.650;-0.522;2023-12-20T03:26:56;4.89;88.30
68912;SHT31;55953;51.650;-0.522;2023-12-20T03:29:24;4.89;88.11
68912;SHT31;55953;51.650;-0.522;2023-12-20T03:31:52;4.90;88.10
68912;SHT31;55953;51.650;-0.522;2023-12-20T03:34:20;4.94;88.11
68912;SHT31;55953;51.650;-0.522;2023-12-20T03:36:49;5.00;87.84
68912;SHT31;55953;51.650;-0.522;2023-12-20T03:39:17;5.09;87.42
68912;SHT31;55953;51.650;-0.522;2023-12-20T03:41:45;5.17;87.54
68912;SHT31;55953;51.650;-0.522;2023-12-20T03:44:13;5.19;87.33
68912;SHT31;55953;51.650;-0.522;2023-12-20T03:46:40;5.22;87.21
68912;SHT31;55953;51.650;-0.522;2023-12-20T03:49:08;5.27;87.23
68912;SHT31;55953;51.650;-0.522;2023-12-20T03:51:36;5.35;87.25
68912;SHT31;55953;51.650;-0.522;2023-12-20T03:54:04;5.39;87.06
68912;SHT31;55953;51.650;-0.522;2023-12-20T03:56:32;5.41;86.89
68912;SHT31;55953;51.650;-0.522;2023-12-20T03:59:00;5.41;86.89
68912;SHT31;55953;51.650;-0.522;2023-12-20T04:01:28;5.41;86.81
68912;SHT31;55953;51.650;-0.522;2023-12-20T04:03:56;5.41;86.85
68912;SHT31;55953;51.650;-0.522;2023-12-20T04:06:24;5.41;86.76
68912;SHT31;55953;51.650;-0.522;2023-12-20T04:08:52;5.41;86.59
68912;SHT31;55953;51.650;-0.522;2023-12-20T04:11:20;5.43;86.74
68912;SHT31;55953;51.650;-0.522;2023-12-20T04:13:48;5.45;86.79
68912;SHT31;55953;51.650;-0.522;2023-12-20T04:16:16;5.41;86.77
68912;SHT31;55953;51.650;-0.522;2023-12-20T04:18:44;5.36;86.64
68912;SHT31;55953;51.650;-0.522;2023-12-20T04:21:12;5.37;86.80
68912;SHT31;55953;51.650;-0.522;2023-12-20T04:23:40;5.35;86.79
68912;SHT31;55953;51.650;-0.522;2023-12-20T04:26:08;5.35;86.85
68912;SHT31;55953;51.650;-0.522;2023-12-20T04:28:37;5.36;86.82
68912;SHT31;55953;51.650;-0.522;2023-12-20T04:31:05;5.35;86.94
68912;SHT31;55953;51.650;-0.522;2023-12-20T04:33:33;5.36;87.01
68912;SHT31;55953;51.650;-0.522;2023-12-20T04:36:01;5.32;86.88
68912;SHT31;55953;51.650;-0.522;2023-12-20T04:38:29;5.30;86.88
68912;SHT31;55953;51.650;-0.522;2023-12-20T04:40:57;5.28;87.09
68912;SHT31;55953;51.650;-0.522;2023-12-20T04:43:24;5.28;87.10
68912;SHT31;55953;51.650;-0.522;2023-12-20T04:45:53;5.26;87.12
68912;SHT31;55953;51.650;-0.522;2023-12-20T04:48:20;5.23;87.18
68912;SHT31;55953;51.650;-0.522;2023-12-20T04:50:49;5.21;87.28
68912;SHT31;55953;51.650;-0.522;2023-12-20T04:53:17;5.18;87.35
68912;SHT31;55953;51.650;-0.522;2023-12-20T04:55:45;5.15;87.42
68912;SHT31;55953;51.650;-0.522;2023-12-20T04:58:13;5.10;87.44
68912;SHT31;55953;51.650;-0.522;2023-12-20T05:00:41;5.06;87.52
68912;SHT31;55953;51.650;-0.522;2023-12-20T05:03:09;5.02;87.60
68912;SHT31;55953;51.650;-0.522;2023-12-20T05:05:37;4.99;87.72
68912;SHT31;55953;51.650;-0.522;2023-12-20T05:08:05;4.99;87.79
68912;SHT31;55953;51.650;-0.522;2023-12-20T05:10:34;4.95;87.74
68912;SHT31;55953;51.650;-0.522;2023-12-20T05:13:04;4.94;87.80
68912;SHT31;55953;51.650;-0.522;2023-12-20T05:15:32;4.95;87.89
68912;SHT31;55953;51.650;-0.522;2023-12-20T05:18:00;4.98;87.91
68912;SHT31;55953;51.650;-0.522;2023-12-20T05:20:28;5.01;87.90
68912;SHT31;55953;51.650;-0.522;2023-12-20T05:22:56;5.03;87.90
68912;SHT31;55953;51.650;-0.522;2023-12-20T05:25:24;5.03;87.90
68912;SHT31;55953;51.650;-0.522;2023-12-20T05:27:52;5.04;87.87
68912;SHT31;55953;51.650;-0.522;2023-12-20T05:30:19;5.00;87.83
68912;SHT31;55953;51.650;-0.522;2023-12-20T05:32:48;4.94;87.80
68912;SHT31;55953;51.650;-0.522;2023-12-20T05:35:16;4.89;87.84
68912;SHT31;55953;51.650;-0.522;2023-12-20T05:37:45;4.83;87.91
68912;SHT31;55953;51.650;-0.522;2023-12-20T05:40:13;4.77;87.99
68912;SHT31;55953;51.650;-0.522;2023-12-20T05:42:41;4.71;88.09
68912;SHT31;55953;51.650;-0.522;2023-12-20T05:45:09;4.67;88.21
68912;SHT31;55953;51.650;-0.522;2023-12-20T05:47:38;4.64;88.29
68912;SHT31;55953;51.650;-0.522;2023-12-20T05:50:06;4.63;88.35
68912;SHT31;55953;51.650;-0.522;2023-12-20T05:52:34;4.60;88.40
68912;SHT31;55953;51.650;-0.522;2023-12-20T05:55:02;4.58;88.47
68912;SHT31;55953;51.650;-0.522;2023-12-20T05:57:31;4.56;88.56
68912;SHT31;55953;51.650;-0.522;2023-12-20T05:59:58;4.53;88.55
68912;SHT31;55953;51.650;-0.522;2023-12-20T06:02:26;4.54;88.65
68912;SHT31;55953;51.650;-0.522;2023-12-20T06:04:54;4.54;88.71
68912;SHT31;55953;51.650;-0.522;2023-12-20T06:07:22;4.54;88.71
68912;SHT31;55953;51.650;-0.522;2023-12-20T06:09:50;4.53;88.74
68912;SHT31;55953;51.650;-0.522;2023-12-20T06:12:19;4.53;88.79
68912;SHT31;55953;51.650;-0.522;2023-12-20T06:14:46;4.53;88.79
68912;SHT31;55953;51.650;-0.522;2023-12-20T06:17:14;4.54;88.82
68912;SHT31;55953;51.650;-0.522;2023-12-20T06:19:42;4.55;88.82
68912;SHT31;55953;51.650;-0.522;2023-12-20T06:22:12;4.56;88.83
68912;SHT31;55953;51.650;-0.522;2023-12-20T06:24:40;4.57;88.85
68912;SHT31;55953;51.650;-0.522;2023-12-20T06:27:08;4.58;88.90
68912;SHT31;55953;51.650;-0.522;2023-12-20T06:29:36;4.59;88.81
68912;SHT31;55953;51.650;-0.522;2023-12-20T06:32:04;4.58;88.88
68912;SHT31;55953;51.650;-0.522;2023-12-20T06:34:32;4.59;88.89
68912;SHT31;55953;51.650;-0.522;2023-12-20T06:37:00;4.62;88.89
68912;SHT31;55953;51.650;-0.522;2023-12-20T06:39:28;4.62;88.88
68912;SHT31;55953;51.650;-0.522;2023-12-20T06:41:58;4.65;88.90
68912;SHT31;55953;51.650;-0.522;2023-12-20T06:44:26;4.68;88.91
68912;SHT31;55953;51.650;-0.522;2023-12-20T06:46:54;4.72;88.96
68912;SHT31;55953;51.650;-0.522;2023-12-20T06:49:22;4.75;89.01
68912;SHT31;55953;51.650;-0.522;2023-12-20T06:51:50;4.80;89.02
68912;SHT31;55953;51.650;-0.522;2023-12-20T06:54:18;4.84;88.91
68912;SHT31;55953;51.650;-0.522;2023-12-20T06:56:46;4.88;88.91
68912;SHT31;55953;51.650;-0.522;2023-12-20T06:59:14;4.91;88.88
68912;SHT31;55953;51.650;-0.522;2023-12-20T07:01:42;4.93;88.92
68912;SHT31;55953;51.650;-0.522;2023-12-20T07:04:15;4.94;88.87
68912;SHT31;55953;51.650;-0.522;2023-12-20T07:06:48;4.94;88.83
68912;SHT31;55953;51.650;-0.522;2023-12-20T07:09:19;4.90;88.86
68912;SHT31;55953;51.650;-0.522;2023-12-20T07:11:47;4.92;88.97
68912;SHT31;55953;51.650;-0.522;2023-12-20T07:14:15;4.92;88.95
68912;SHT31;55953;51.650;-0.522;2023-12-20T07:16:43;4.94;89.00
68912;SHT31;55953;51.650;-0.522;2023-12-20T07:19:11;4.96;88.99
68912;SHT31;55953;51.650;-0.522;2023-12-20T07:21:39;4.98;88.94
68912;SHT31;55953;51.650;-0.522;2023-12-20T07:24:07;4.99;88.99
68912;SHT31;55953;51.650;-0.522;2023-12-20T07:26:35;4.96;88.88
68912;SHT31;55953;51.650;-0.522;2023-12-20T07:29:05;4.95;88.94
68912;SHT31;55953;51.650;-0.522;2023-12-20T07:31:34;4.94;88.98
68912;SHT31;55953;51.650;-0.522;2023-12-20T07:34:02;4.92;88.97
68912;SHT31;55953;51.650;-0.522;2023-12-20T07:36:30;4.89;88.89
68912;SHT31;55953;51.650;-0.522;2023-12-20T07:38:58;4.85;88.88
68912;SHT31;55953;51.650;-0.522;2023-12-20T07:41:26;4.82;88.94
68912;SHT31;55953;51.650;-0.522;2023-12-20T07:43:54;4.82;88.99
68912;SHT31;55953;51.650;-0.522;2023-12-20T07:46:23;4.82;89.06
68912;SHT31;55953;51.650;-0.522;2023-12-20T07:48:51;4.84;89.14
68912;SHT31;55953;51.650;-0.522;2023-12-20T07:51:19;4.85;89.16
68912;SHT31;55953;51.650;-0.522;2023-12-20T07:53:48;4.86;89.19
68912;SHT31;55953;51.650;-0.522;2023-12-20T07:56:17;4.87;89.20
68912;SHT31;55953;51.650;-0.522;2023-12-20T07:58:46;4.89;89.21
68912;SHT31;55953;51.650;-0.522;2023-12-20T08:01:20;4.91;89.27
68912;SHT31;55953;51.650;-0.522;2023-12-20T08:03:49;4.93;89.25
68912;SHT31;55953;51.650;-0.522;2023-12-20T08:06:19;4.97;89.28
68912;SHT31;55953;51.650;-0.522;2023-12-20T08:08:49;5.01;89.32
68912;SHT31;55953;51.650;-0.522;2023-12-20T08:11:28;5.07;89.31
68912;SHT31;55953;51.650;-0.522;2023-12-20T08:13:57;5.13;89.31
68912;SHT31;55953;51.650;-0.522;2023-12-20T08:16:26;5.22;89.32
68912;SHT31;55953;51.650;-0.522;2023-12-20T08:18:54;5.29;89.29
68912;SHT31;55953;51.650;-0.522;2023-12-20T08:21:22;5.37;89.18
68912;SHT31;55953;51.650;-0.522;2023-12-20T08:23:50;5.44;89.11
68912;SHT31;55953;51.650;-0.522;2023-12-20T08:26:18;5.52;89.10
68912;SHT31;55953;51.650;-0.522;2023-12-20T08:28:51;5.63;89.04
68912;SHT31;55953;51.650;-0.522;2023-12-20T08:31:19;5.73;88.95
68912;SHT31;55953;51.650;-0.522;2023-12-20T08:33:49;5.82;88.81
68912;SHT31;55953;51.650;-0.522;2023-12-20T08:36:18;5.89;88.64
68912;SHT31;55953;51.650;-0.522;2023-12-20T08:38:49;5.96;88.60
68912;SHT31;55953;51.650;-0.522;2023-12-20T08:41:17;6.05;88.59
68912;SHT31;55953;51.650;-0.522;2023-12-20T08:43:46;6.13;88.50
68912;SHT31;55953;51.650;-0.522;2023-12-20T08:46:14;6.23;88.47
68912;SHT31;55953;51.650;-0.522;2023-12-20T08:48:42;6.28;88.33
68912;SHT31;55953;51.650;-0.522;2023-12-20T08:51:11;6.32;88.27
68912;SHT31;55953;51.650;-0.522;2023-12-20T08:53:39;6.39;88.30
68912;SHT31;55953;51.650;-0.522;2023-12-20T08:56:07;6.43;88.26
68912;SHT31;55953;51.650;-0.522;2023-12-20T08:58:34;6.46;88.20
68912;SHT31;55953;51.650;-0.522;2023-12-20T09:01:04;6.50;88.11
68912;SHT31;55953;51.650;-0.522;2023-12-20T09:03:32;6.59;88.19
68912;SHT31;55953;51.650;-0.522;2023-12-20T09:06:00;6.67;88.06
68912;SHT31;55953;51.650;-0.522;2023-12-20T09:08:28;6.75;88.03
68912;SHT31;55953;51.650;-0.522;2023-12-20T09:10:56;6.84;87.97
68912;SHT31;55953;51.650;-0.522;2023-12-20T09:13:25;6.94;87.76
68912;SHT31;55953;51.650;-0.522;2023-12-20T09:15:56;7.07;87.46
68912;SHT31;55953;51.650;-0.522;2023-12-20T09:18:25;7.24;87.28
68912;SHT31;55953;51.650;-0.522;2023-12-20T09:20:53;7.41;87.03
68912;SHT31;55953;51.650;-0.522;2023-12-20T09:23:22;7.57;86.90
68912;SHT31;55953;51.650;-0.522;2023-12-20T09:25:50;7.71;86.86
68912;SHT31;55953;51.650;-0.522;2023-12-20T09:28:21;7.88;86.65
68912;SHT31;55953;51.650;-0.522;2023-12-20T09:30:49;8.00;86.58
68912;SHT31;55953;51.650;-0.522;2023-12-20T09:33:17;8.11;85.99
68912;SHT31;55953;51.650;-0.522;2023-12-20T09:35:46;8.16;85.72
68912;SHT31;55953;51.650;-0.522;2023-12-20T09:38:15;8.22;85.68
68912;SHT31;55953;51.650;-0.522;2023-12-20T09:40:45;8.28;85.34
68912;SHT31;55953;51.650;-0.522;2023-12-20T09:43:15;8.33;84.92
68912;SHT31;55953;51.650;-0.522;2023-12-20T09:45:50;8.40;85.16
68912;SHT31;55953;51.650;-0.522;2023-12-20T09:48:21;8.43;84.92
68912;SHT31;55953;51.650;-0.522;2023-12-20T09:50:49;8.48;84.84
68912;SHT31;55953;51.650;-0.522;2023-12-20T09:53:20;8.51;85.02
68912;SHT31;55953;51.650;-0.522;2023-12-20T09:55:57;8.57;84.64
68912;SHT31;55953;51.650;-0.522;2023-12-20T09:58:29;8.60;84.80
68912;SHT31;55953;51.650;-0.522;2023-12-20T10:00:57;8.61;84.46
68912;SHT31;55953;51.650;-0.522;2023-12-20T10:03:26;8.65;84.77
68912;SHT31;55953;51.650;-0.522;2023-12-20T10:05:55;8.68;84.70
68912;SHT31;55953;51.650;-0.522;2023-12-20T10:08:25;8.71;84.60
68912;SHT31;55953;51.650;-0.522;2023-12-20T10:10:54;8.75;84.52
68912;SHT31;55953;51.650;-0.522;2023-12-20T10:13:23;8.78;84.42
68912;SHT31;55953;51.650;-0.522;2023-12-20T10:15:51;8.81;83.87
68912;SHT31;55953;51.650;-0.522;2023-12-20T10:18:19;8.86;84.26
68912;SHT31;55953;51.650;-0.522;2023-12-20T10:20:48;8.92;84.12
68912;SHT31;55953;51.650;-0.522;2023-12-20T10:23:17;8.98;83.91
68912;SHT31;55953;51.650;-0.522;2023-12-20T10:25:50;9.05;83.89
68912;SHT31;55953;51.650;-0.522;2023-12-20T10:28:25;9.09;83.83
68912;SHT31;55953;51.650;-0.522;2023-12-20T10:30:56;9.09;83.64
68912;SHT31;55953;51.650;-0.522;2023-12-20T10:33:27;9.09;83.63
68912;SHT31;55953;51.650;-0.522;2023-12-20T10:35:57;9.09;83.91
68912;SHT31;55953;51.650;-0.522;2023-12-20T10:38:25;9.10;83.54
68912;SHT31;55953;51.650;-0.522;2023-12-20T10:40:54;9.11;83.33
68912;SHT31;55953;51.650;-0.522;2023-12-20T10:43:28;9.12;83.40
68912;SHT31;55953;51.650;-0.522;2023-12-20T10:45:58;9.14;83.21
68912;SHT31;55953;51.650;-0.522;2023-12-20T10:48:27;9.17;83.51
68912;SHT31;55953;51.650;-0.522;2023-12-20T10:50:58;9.17;82.96
68912;SHT31;55953;51.650;-0.522;2023-12-20T10:53:27;9.17;82.94
68912;SHT31;55953;51.650;-0.522;2023-12-20T10:55:55;9.18;83.18
68912;SHT31;55953;51.650;-0.522;2023-12-20T10:58:25;9.20;83.52
68912;SHT31;55953;51.650;-0.522;2023-12-20T11:00:59;9.21;83.17
68912;SHT31;55953;51.650;-0.522;2023-12-20T11:03:32;9.24;83.46
68912;SHT31;55953;51.650;-0.522;2023-12-20T11:06:08;9.26;83.00
68912;SHT31;55953;51.650;-0.522;2023-12-20T11:08:50;9.29;83.13
68912;SHT31;55953;51.650;-0.522;2023-12-20T11:11:52;9.37;82.12
68912;SHT31;55953;51.650;-0.522;2023-12-20T11:14:39;9.46;82.23
68912;SHT31;55953;51.650;-0.522;2023-12-20T11:17:20;9.53;82.09
68912;SHT31;55953;51.650;-0.522;2023-12-20T11:22:20;9.62;81.23
68912;SHT31;55953;51.650;-0.522;2023-12-20T11:24:49;9.67;81.24
68912;SHT31;55953;51.650;-0.522;2023-12-20T11:27:19;9.71;81.54
68912;SHT31;55953;51.650;-0.522;2023-12-20T11:29:57;9.73;81.25
68912;SHT31;55953;51.650;-0.522;2023-12-20T11:34:58;9.76;81.38
68912;SHT31;55953;51.650;-0.522;2023-12-20T11:37:46;9.76;80.76
68912;SHT31;55953;51.650;-0.522;2023-12-20T11:40:16;9.74;81.13
68912;SHT31;55953;51.650;-0.522;2023-12-20T11:42:48;9.73;81.26
68912;SHT31;55953;51.650;-0.522;2023-12-20T11:45:19;9.71;81.10
68912;SHT31;55953;51.650;-0.522;2023-12-20T11:47:53;9.70;80.86
68912;SHT31;55953;51.650;-0.522;2023-12-20T11:50:22;9.72;80.89
68912;SHT31;55953;51.650;-0.522;2023-12-20T11:52:52;9.72;81.07
68912;SHT31;55953;51.650;-0.522;2023-12-20T11:55:22;9.69;80.85
68912;SHT31;55953;51.650;-0.522;2023-12-20T11:57:53;9.67;80.90
68912;SHT31;55953;51.650;-0.522;2023-12-20T12:00:21;9.66;80.99
68912;SHT31;55953;51.650;-0.522;2023-12-20T12:02:56;9.66;80.94
68912;SHT31;55953;51.650;-0.522;2023-12-20T12:05:27;9.69;80.89
68912;SHT31;55953;51.650;-0.522;2023-12-20T12:07:55;9.74;80.90
68912;SHT31;55953;51.650;-0.522;2023-12-20T12:10:23;9.81;80.50
68912;SHT31;55953;51.650;-0.522;2023-12-20T12:12:51;9.88;80.67
68912;SHT31;55953;51.650;-0.522;2023-12-20T12:15:20;9.94;80.25
68912;SHT31;55953;51.650;-0.522;2023-12-20T12:17:55;10.00;79.85
68912;SHT31;55953;51.650;-0.522;2023-12-20T12:20:24;10.06;79.96
68912;SHT31;55953;51.650;-0.522;2023-12-20T12:22:59;10.10;79.20
68912;SHT31;55953;51.650;-0.522;2023-12-20T12:25:28;10.17;78.96
68912;SHT31;55953;51.650;-0.522;2023-12-20T12:27:59;10.24;78.97
68912;SHT31;55953;51.650;-0.522;2023-12-20T12:30:27;10.28;78.71
68912;SHT31;55953;51.650;-0.522;2023-12-20T12:33:05;10.35;78.88
68912;SHT31;55953;51.650;-0.522;2023-12-20T12:35:33;10.41;78.74
68912;SHT31;55953;51.650;-0.522;2023-12-20T12:38:02;10.46;78.69
68912;SHT31;55953;51.650;-0.522;2023-12-20T12:40:34;10.50;78.71
68912;SHT31;55953;51.650;-0.522;2023-12-20T12:43:03;10.52;78.18
68912;SHT31;55953;51.650;-0.522;2023-12-20T12:45:33;10.51;78.07
68912;SHT31;55953;51.650;-0.522;2023-12-20T12:48:01;10.49;78.43
68912;SHT31;55953;51.650;-0.522;2023-12-20T12:50:30;10.48;78.35
68912;SHT31;55953;51.650;-0.522;2023-12-20T12:52:58;10.44;78.22
68912;SHT31;55953;51.650;-0.522;2023-12-20T12:55:26;10.44;78.51
68912;SHT31;55953;51.650;-0.522;2023-12-20T12:57:55;10.49;79.01
68912;SHT31;55953;51.650;-0.522;2023-12-20T13:00:23;10.52;79.12
68912;SHT31;55953;51.650;-0.522;2023-12-20T13:02:52;10.55;78.89
68912;SHT31;55953;51.650;-0.522;2023-12-20T13:05:20;10.54;78.44
68912;SHT31;55953;51.650;-0.522;2023-12-20T13:07:48;10.52;78.47
68912;SHT31;55953;51.650;-0.522;2023-12-20T13:10:16;10.50;78.85
68912;SHT31;55953;51.650;-0.522;2023-12-20T13:12:44;10.47;78.47
68912;SHT31;55953;51.650;-0.522;2023-12-20T13:15:13;10.47;79.21
68912;SHT31;55953;51.650;-0.522;2023-12-20T13:17:41;10.47;79.06
68912;SHT31;55953;51.650;-0.522;2023-12-20T13:20:09;10.54;79.36
68912;SHT31;55953;51.650;-0.522;2023-12-20T13:22:37;10.64;79.03
68912;SHT31;55953;51.650;-0.522;2023-12-20T13:25:05;10.70;79.07
68912;SHT31;55953;51.650;-0.522;2023-12-20T13:27:34;10.74;78.97
68912;SHT31;55953;51.650;-0.522;2023-12-20T13:30:02;10.78;78.85
68912;SHT31;55953;51.650;-0.522;2023-12-20T13:32:31;10.84;79.04
68912;SHT31;55953;51.650;-0.522;2023-12-20T13:34:59;10.87;78.59
68912;SHT31;55953;51.650;-0.522;2023-12-20T13:37:28;10.89;78.65
68912;SHT31;55953;51.650;-0.522;2023-12-20T13:39:56;10.94;78.83
68912;SHT31;55953;51.650;-0.522;2023-12-20T13:42:24;11.01;79.06
68912;SHT31;55953;51.650;-0.522;2023-12-20T13:44:54;11.03;78.50
68912;SHT31;55953;51.650;-0.522;2023-12-20T13:47:23;11.01;78.47
68912;SHT31;55953;51.650;-0.522;2023-12-20T13:49:51;10.98;77.83
68912;SHT31;55953;51.650;-0.522;2023-12-20T13:52:20;10.96;77.65
68912;SHT31;55953;51.650;-0.522;2023-12-20T13:54:48;10.95;77.79
68912;SHT31;55953;51.650;-0.522;2023-12-20T13:57:16;10.94;78.01
68912;SHT31;55953;51.650;-0.522;2023-12-20T14:00:05;10.94;78.20
68912;SHT31;55953;51.650;-0.522;2023-12-20T14:02:35;10.93;78.55
68912;SHT31;55953;51.650;-0.522;2023-12-20T14:05:03;10.90;78.19
68912;SHT31;55953;51.650;-0.522;2023-12-20T14:07:32;10.86;78.31
68912;SHT31;55953;51.650;-0.522;2023-12-20T14:10:00;10.84;78.28
68912;SHT31;55953;51.650;-0.522;2023-12-20T14:12:28;10.84;78.58
68912;SHT31;55953;51.650;-0.522;2023-12-20T14:14:55;10.86;78.96
68912;SHT31;55953;51.650;-0.522;2023-12-20T14:17:23;10.83;78.68
68912;SHT31;55953;51.650;-0.522;2023-12-20T14:19:51;10.81;78.88
68912;SHT31;55953;51.650;-0.522;2023-12-20T14:22:20;10.78;78.78
68912;SHT31;55953;51.650;-0.522;2023-12-20T14:24:48;10.75;78.89
68912;SHT31;55953;51.650;-0.522;2023-12-20T14:27:16;10.73;79.04
68912;SHT31;55953;51.650;-0.522;2023-12-20T14:29:44;10.69;79.08
68912;SHT31;55953;51.650;-0.522;2023-12-20T14:32:12;10.67;78.96
68912;SHT31;55953;51.650;-0.522;2023-12-20T14:34:41;10.65;79.12
68912;SHT31;55953;51.650;-0.522;2023-12-20T14:37:09;10.65;79.41
68912;SHT31;55953;51.650;-0.522;2023-12-20T14:39:38;10.65;79.38
68912;SHT31;55953;51.650;-0.522;2023-12-20T14:42:08;10.62;79.36
68912;SHT31;55953;51.650;-0.522;2023-12-20T14:44:41;10.60;79.32
68912;SHT31;55953;51.650;-0.522;2023-12-20T14:47:10;10.59;79.45
68912;SHT31;55953;51.650;-0.522;2023-12-20T14:49:38;10.59;79.54
68912;SHT31;55953;51.650;-0.522;2023-12-20T14:52:06;10.58;79.33
68912;SHT31;55953;51.650;-0.522;2023-12-20T14:54:34;10.57;79.64
68912;SHT31;55953;51.650;-0.522;2023-12-20T14:57:02;10.56;79.29
68912;SHT31;55953;51.650;-0.522;2023-12-20T14:59:32;10.57;79.41
68912;SHT31;55953;51.650;-0.522;2023-12-20T15:02:01;10.60;79.70
68912;SHT31;55953;51.650;-0.522;2023-12-20T15:04:32;10.59;79.68
68912;SHT31;55953;51.650;-0.522;2023-12-20T15:07:00;10.60;79.46
68912;SHT31;55953;51.650;-0.522;2023-12-20T15:09:28;10.60;79.66
68912;SHT31;55953;51.650;-0.522;2023-12-20T15:11:57;10.57;79.80
68912;SHT31;55953;51.650;-0.522;2023-12-20T15:14:25;10.56;79.60
68912;SHT31;55953;51.650;-0.522;2023-12-20T15:16:55;10.55;79.82
68912;SHT31;55953;51.650;-0.522;2023-12-20T15:19:23;10.57;79.78
68912;SHT31;55953;51.650;-0.522;2023-12-20T15:21:52;10.55;79.53
68912;SHT31;55953;51.650;-0.522;2023-12-20T15:24:20;10.54;79.86
68912;SHT31;55953;51.650;-0.522;2023-12-20T15:26:54;10.52;79.91
68912;SHT31;55953;51.650;-0.522;2023-12-20T15:29:23;10.50;79.90
68912;SHT31;55953;51.650;-0.522;2023-12-20T15:31:51;10.49;79.96
68912;SHT31;55953;51.650;-0.522;2023-12-20T15:34:19;10.48;80.07
68912;SHT31;55953;51.650;-0.522;2023-12-20T15:36:47;10.46;80.18
68912;SHT31;55953;51.650;-0.522;2023-12-20T15:39:16;10.45;80.18
68912;SHT31;55953;51.650;-0.522;2023-12-20T15:41:43;10.43;80.21
68912;SHT31;55953;51.650;-0.522;2023-12-20T15:44:12;10.43;80.27